sensor_id;sensor_type;location;lat;lon;timestamp;pressure;altitude;pressure_sealevel;temperature;humidity
9764;BME280;4921;43.214;27.936;2022-12-26T00:01:56;102110.38;;;8.91;100.00
9764;BME280;4921;43.214;27.936;2022-12-26T00:04:25;102119.94;;;8.92;100.00
9764;BME280;4921;43.214;27.936;2022-12-26T00:06:53;102111.09;;;8.95;100.00
9764;BME280;4921;43.214;27.936;2022-12-26T00:09:20;102129.16;;;8.82;100.00
9764;BME280;4921;43.214;27.936;2022-12-26T00:11:47;102124.31;;;8.75;100.00
9764;BME280;4921;43.214;27.936;2022-12-26T00:14:14;102122.50;;;8.58;100.00
9764;BME280;4921;43.214;27.936;2022-12-26T00:16:43;102127.78;;;8.75;100.00
9764;BME280;4921;43.214;27.936;2022-12-26T00:19:10;102123.88;;;8.65;100.00
9764;BME280;4921;43.214;27.936;2022-12-26T00:21:37;102125.22;;;8.74;100.00
9764;BME280;4921;43.214;27.936;2022-12-26T00:24:07;102132.19;;;8.75;100.00
9764;BME280;4921;43.214;27.936;2022-12-26T00:26:34;102138.19;;;8.77;100.00
9764;BME280;4921;43.214;27.936;2022-12-26T00:29:02;102141.16;;;8.69;100.00
9764;BME280;4921;43.214;27.936;2022-12-26T00:31:32;102135.16;;;8.49;100.00
9764;BME280;4921;43.214;27.936;2022-12-26T00:34:00;102145.16;;;8.40;100.00
9764;BME280;4921;43.214;27.936;2022-12-26T00:36:28;102145.47;;;8.34;100.00
9764;BME280;4921;43.214;27.936;2022-12-26T00:38:57;102145.50;;;8.33;100.00
9764;BME280;4921;43.214;27.936;2022-12-26T00:41:27;102147.44;;;8.29;100.00
9764;BME280;4921;43.214;27.936;2022-12-26T00:43:54;102145.38;;;8.16;100.00
9764;BME280;4921;43.214;27.936;2022-12-26T00:46:22;102155.16;;;8.12;100.00
9764;BME280;4921;43.214;27.936;2022-12-26T00:48:49;102157.22;;;8.06;100.00
9764;BME280;4921;43.214;27.936;2022-12-26T00:51:16;102158.00;;;8.08;100.00
9764;BME280;4921;43.214;27.936;2022-12-26T00:53:43;102152.81;;;8.06;100.00
9764;BME280;4921;43.214;27.936;2022-12-26T00:56:10;102151.09;;;8.05;100.00
9764;BME280;4921;43.214;27.936;2022-12-26T00:58:39;102150.44;;;8.00;100.00
9764;BME280;4921;43.214;27.936;2022-12-26T01:01:09;102152.75;;;8.08;100.00
9764;BME280;4921;43.214;27.936;2022-12-26T01:03:36;102151.91;;;8.07;100.00
9764;BME280;4921;43.214;27.936;2022-12-26T01:06:04;102151.69;;;8.32;100.00
9764;BME280;4921;43.214;27.936;2022-12-26T01:08:31;102152.16;;;8.21;100.00
9764;BME280;4921;43.214;27.936;2022-12-26T01:11:02;102156.53;;;8.21;100.00
9764;BME280;4921;43.214;27.936;2022-12-26T01:13:30;102126.16;;;8.17;100.00
9764;BME280;4921;43.214;27.936;2022-12-26T01:15:58;102141.72;;;8.20;100.00
9764;BME280;4921;43.214;27.936;2022-12-26T01:18:25;102145.78;;;8.27;100.00
9764;BME280;4921;43.214;27.936;2022-12-26T01:20:57;102146.44;;;8.32;100.00
9764;BME280;4921;43.214;27.936;2022-12-26T01:23:24;102149.19;;;8.29;100.00
9764;BME280;4921;43.214;27.936;2022-12-26T01:25:51;102142.84;;;8.14;100.00
9764;BME280;4921;43.214;27.936;2022-12-26T01:28:18;102158.09;;;8.25;100.00
9764;BME280;4921;43.214;27.936;2022-12-26T01:30:45;102170.69;;;8.17;100.00
9764;BME280;4921;43.214;27.936;2022-12-26T01:33:14;102163.94;;;8.11;100.00
9764;BME280;4921;43.214;27.936;2022-12-26T01:35:51;102147.50;;;8.08;100.00
9764;BME280;4921;43.214;27.936;2022-12-26T01:38:19;102151.59;;;8.13;100.00
9764;BME280;4921;43.214;27.936;2022-12-26T01:40:47;102157.72;;;8.14;100.00
9764;BME280;4921;43.214;27.936;2022-12-26T01:43:50;102153.66;;;8.07;100.00
9764;BME280;4921;43.214;27.936;2022-12-26T01:46:20;102146.13;;;8.19;100.00
9764;BME280;4921;43.214;27.936;2022-12-26T01:48:49;102146.38;;;8.33;100.00
9764;BME280;4921;43.214;27.936;2022-12-26T01:51:18;102122.84;;;8.32;100.00
9764;BME280;4921;43.214;27.936;2022-12-26T01:53:49;102143.53;;;8.57;100.00
9764;BME280;4921;43.214;27.936;2022-12-26T01:56:20;102144.84;;;8.65;100.00
9764;BME280;4921;43.214;27.936;2022-12-26T01:58:51;102127.31;;;8.49;100.00
9764;BME280;4921;43.214;27.936;2022-12-26T02:01:20;102150.88;;;8.67;100.00
9764;BME280;4921;43.214;27.936;2022-12-26T02:03:49;102154.22;;;8.71;100.00
9764;BME280;4921;43.214;27.936;2022-12-26T02:06:34;102161.75;;;8.60;100.00
9764;BME280;4921;43.214;27.936;2022-12-26T02:09:03;102168.97;;;8.55;100.00
9764;BME280;4921;43.214;27.936;2022-12-26T02:11:33;102178.75;;;8.51;100.00
9764;BME280;4921;43.214;27.936;2022-12-26T02:14:01;102175.75;;;8.40;100.00
9764;BME280;4921;43.214;27.936;2022-12-26T02:16:32;102179.94;;;8.44;100.00
9764;BME280;4921;43.214;27.936;2022-12-26T02:19:00;102181.34;;;8.32;100.00
9764;BME280;4921;43.214;27.936;2022-12-26T02:21:49;102173.34;;;8.35;100.00
9764;BME280;4921;43.214;27.936;2022-12-26T02:24:56;102188.16;;;8.16;100.00
9764;BME280;4921;43.214;27.936;2022-12-26T02:27:57;102185.09;;;8.07;100.00
9764;BME280;4921;43.214;27.936;2022-12-26T02:30:38;102187.56;;;7.91;100.00
9764;BME280;4921;43.214;27.936;2022-12-26T02:36:07;102195.19;;;7.96;100.00
9764;BME280;4921;43.214;27.936;2022-12-26T02:38:46;102184.72;;;7.96;100.00
9764;BME280;4921;43.214;27.936;2022-12-26T02:41:23;102179.84;;;8.07;100.00
9764;BME280;4921;43.214;27.936;2022-12-26T02:44:02;102181.88;;;8.20;100.00
9764;BME280;4921;43.214;27.936;2022-12-26T02:47:01;102177.09;;;8.10;100.00
9764;BME280;4921;43.214;27.936;2022-12-26T02:49:40;102175.97;;;8.15;100.00
9764;BME280;4921;43.214;27.936;2022-12-26T02:52:28;102177.16;;;8.28;100.00
9764;BME280;4921;43.214;27.936;2022-12-26T02:55:16;102177.50;;;8.21;100.00
9764;BME280;4921;43.214;27.936;2022-12-26T02:58:05;102186.59;;;8.32;100.00
9764;BME280;4921;43.214;27.936;2022-12-26T03:00:59;102186.59;;;8.32;100.00
9764;BME280;4921;43.214;27.936;2022-12-26T03:03:50;102187.16;;;8.39;100.00
9764;BME280;4921;43.214;27.936;2022-12-26T03:06:38;102180.22;;;8.38;100.00
9764;BME280;4921;43.214;27.936;2022-12-26T03:09:27;102187.72;;;8.45;100.00
9764;BME280;4921;43.214;27.936;2022-12-26T03:12:25;102185.59;;;8.35;100.00
9764;BME280;4921;43.214;27.936;2022-12-26T03:15:18;102179.75;;;8.30;100.00
9764;BME280;4921;43.214;27.936;2022-12-26T03:17:49;102188.22;;;8.35;100.00
9764;BME280;4921;43.214;27.936;2022-12-26T03:20:21;102187.03;;;8.22;100.00
9764;BME280;4921;43.214;27.936;2022-12-26T03:22:53;102186.09;;;8.04;100.00
9764;BME280;4921;43.214;27.936;2022-12-26T03:25:26;102193.44;;;7.96;100.00
9764;BME280;4921;43.214;27.936;2022-12-26T03:28:14;102188.13;;;7.78;100.00
9764;BME280;4921;43.214;27.936;2022-12-26T03:30:41;102175.44;;;7.89;100.00
9764;BME280;4921;43.214;27.936;2022-12-26T03:33:18;102179.13;;;7.85;100.00
9764;BME280;4921;43.214;27.936;2022-12-26T03:36:05;102152.31;;;7.38;100.00
9764;BME280;4921;43.214;27.936;2022-12-26T03:38:34;102174.97;;;7.79;100.00
9764;BME280;4921;43.214;27.936;2022-12-26T03:41:20;102175.56;;;7.86;100.00
9764;BME280;4921;43.214;27.936;2022-12-26T03:44:16;102163.63;;;7.99;100.00
9764;BME280;4921;43.214;27.936;2022-12-26T03:47:12;102180.72;;;8.07;100.00
9764;BME280;4921;43.214;27.936;2022-12-26T03:50:03;102168.09;;;7.97;100.00
9764;BME280;4921;43.214;27.936;2022-12-26T03:52:58;102172.44;;;7.78;100.00
9764;BME280;4921;43.214;27.936;2022-12-26T03:55:51;102172.47;;;7.96;100.00
9764;BME280;4921;43.214;27.936;2022-12-26T03:58:42;102173.91;;;8.03;100.00
9764;BME280;4921;43.214;27.936;2022-12-26T04:01:29;102169.06;;;7.94;100.00
9764;BME280;4921;43.214;27.936;2022-12-26T04:04:17;102167.19;;;7.98;100.00
9764;BME280;4921;43.214;27.936;2022-12-26T04:07:06;102175.84;;;7.80;100.00
9764;BME280;4921;43.214;27.936;2022-12-26T04:09:58;102172.50;;;7.56;100.00
9764;BME280;4921;43.214;27.936;2022-12-26T04:12:44;102180.88;;;7.44;100.00
9764;BME280;4921;43.214;27.936;2022-12-26T04:15:37;102179.94;;;7.45;100.00
9764;BME280;4921;43.214;27.936;2022-12-26T04:18:27;102183.88;;;7.55;100.00
9764;BME280;4921;43.214;27.936;2022-12-26T04:21:17;102181.66;;;7.46;100.00
9764;BME280;4921;43.214;27.936;2022-12-26T04:24:08;102179.75;;;7.49;100.00
9764;BME280;4921;43.214;27.936;2022-12-26T04:27:00;102180.31;;;7.36;100.00
9764;BME280;4921;43.214;27.936;2022-12-26T04:29:46;102196.09;;;7.34;100.00
9764;BME280;4921;43.214;27.936;2022-12-26T04:32:35;102198.81;;;7.10;100.00
9764;BME280;4921;43.214;27.936;2022-12-26T04:35:26;102206.28;;;7.20;100.00
9764;BME280;4921;43.214;27.936;2022-12-26T04:38:18;102197.81;;;7.35;100.00
9764;BME280;4921;43.214;27.936;2022-12-26T04:41:05;102192.78;;;7.29;100.00
9764;BME280;4921;43.214;27.936;2022-12-26T04:43:54;102200.78;;;7.26;100.00
9764;BME280;4921;43.214;27.936;2022-12-26T04:46:30;102201.25;;;7.36;100.00
9764;BME280;4921;43.214;27.936;2022-12-26T04:48:58;102205.28;;;7.23;100.00
9764;BME280;4921;43.214;27.936;2022-12-26T04:51:43;102211.53;;;7.19;100.00
9764;BME280;4921;43.214;27.936;2022-12-26T04:54:10;102218.75;;;7.14;100.00
9764;BME280;4921;43.214;27.936;2022-12-26T04:56:38;102227.41;;;7.14;100.00
9764;BME280;4921;43.214;27.936;2022-12-26T04:59:06;102216.41;;;7.06;100.00
9764;BME280;4921;43.214;27.936;2022-12-26T05:01:33;102246.84;;;7.30;100.00
9764;BME280;4921;43.214;27.936;2022-12-26T05:04:18;102235.69;;;7.47;100.00
9764;BME280;4921;43.214;27.936;2022-12-26T05:07:04;102238.31;;;7.47;100.00
9764;BME280;4921;43.214;27.936;2022-12-26T05:09:53;102254.44;;;7.58;100.00
9764;BME280;4921;43.214;27.936;2022-12-26T05:12:20;102267.63;;;7.55;100.00
9764;BME280;4921;43.214;27.936;2022-12-26T05:14:48;102253.41;;;7.40;100.00
9764;BME280;4921;43.214;27.936;2022-12-26T05:17:15;102252.38;;;7.23;100.00
9764;BME280;4921;43.214;27.936;2022-12-26T05:19:59;102262.34;;;7.13;100.00
9764;BME280;4921;43.214;27.936;2022-12-26T05:22:46;102260.09;;;7.26;100.00
9764;BME280;4921;43.214;27.936;2022-12-26T05:25:45;102264.63;;;7.22;100.00
9764;BME280;4921;43.214;27.936;2022-12-26T05:28:31;102264.31;;;7.30;100.00
9764;BME280;4921;43.214;27.936;2022-12-26T05:31:15;102272.47;;;7.44;100.00
9764;BME280;4921;43.214;27.936;2022-12-26T05:33:44;102269.63;;;7.27;100.00
9764;BME280;4921;43.214;27.936;2022-12-26T05:36:32;102269.00;;;7.22;100.00
9764;BME280;4921;43.214;27.936;2022-12-26T05:39:00;102277.69;;;7.22;100.00
9764;BME280;4921;43.214;27.936;2022-12-26T05:41:27;102281.72;;;7.31;100.00
9764;BME280;4921;43.214;27.936;2022-12-26T05:43:54;102277.03;;;7.39;100.00
9764;BME280;4921;43.214;27.936;2022-12-26T05:46:23;102271.47;;;7.46;100.00
9764;BME280;4921;43.214;27.936;2022-12-26T05:48:50;102277.75;;;7.42;100.00
9764;BME280;4921;43.214;27.936;2022-12-26T05:51:17;102276.31;;;7.35;100.00
9764;BME280;4921;43.214;27.936;2022-12-26T05:53:44;102278.25;;;7.30;100.00
9764;BME280;4921;43.214;27.936;2022-12-26T05:56:14;102281.53;;;7.35;100.00
9764;BME280;4921;43.214;27.936;2022-12-26T05:58:42;102275.72;;;7.27;100.00
9764;BME280;4921;43.214;27.936;2022-12-26T06:01:10;102274.03;;;7.26;100.00
9764;BME280;4921;43.214;27.936;2022-12-26T06:03:39;102283.06;;;7.41;100.00
9764;BME280;4921;43.214;27.936;2022-12-26T06:06:08;102279.38;;;7.45;100.00
9764;BME280;4921;43.214;27.936;2022-12-26T06:08:36;102280.94;;;7.50;100.00
9764;BME280;4921;43.214;27.936;2022-12-26T06:11:04;102278.78;;;7.60;100.00
9764;BME280;4921;43.214;27.936;2022-12-26T06:13:31;102272.25;;;7.48;100.00
9764;BME280;4921;43.214;27.936;2022-12-26T06:16:02;102275.13;;;7.42;100.00
9764;BME280;4921;43.214;27.936;2022-12-26T06:18:29;102278.78;;;7.60;100.00
9764;BME280;4921;43.214;27.936;2022-12-26T06:20:57;102270.91;;;7.60;100.00
9764;BME280;4921;43.214;27.936;2022-12-26T06:23:24;102263.25;;;7.55;100.00
9764;BME280;4921;43.214;27.936;2022-12-26T06:25:52;102265.09;;;7.53;100.00
9764;BME280;4921;43.214;27.936;2022-12-26T06:28:20;102273.44;;;7.41;100.00
9764;BME280;4921;43.214;27.936;2022-12-26T06:30:47;102280.69;;;7.56;100.00
9764;BME280;4921;43.214;27.936;2022-12-26T06:33:14;102275.13;;;7.64;100.00
9764;BME280;4921;43.214;27.936;2022-12-26T06:35:41;102269.00;;;7.63;100.00
9764;BME280;4921;43.214;27.936;2022-12-26T06:38:10;102275.59;;;7.74;100.00
9764;BME280;4921;43.214;27.936;2022-12-26T06:40:37;102278.22;;;7.74;99.59
9764;BME280;4921;43.214;27.936;2022-12-26T06:43:05;102270.69;;;7.86;99.67
9764;BME280;4921;43.214;27.936;2022-12-26T06:45:32;102273.84;;;7.94;98.20
9764;BME280;4921;43.214;27.936;2022-12-26T06:47:59;102279.59;;;8.02;97.88
9764;BME280;4921;43.214;27.936;2022-12-26T06:50:26;102275.19;;;8.04;96.62
9764;BME280;4921;43.214;27.936;2022-12-26T06:52:53;102277.81;;;8.04;97.29
9764;BME280;4921;43.214;27.936;2022-12-26T06:55:22;102269.78;;;8.07;96.46
9764;BME280;4921;43.214;27.936;2022-12-26T06:57:50;102285.19;;;8.15;96.28
9764;BME280;4921;43.214;27.936;2022-12-26T07:00:18;102282.63;;;8.13;95.70
9764;BME280;4921;43.214;27.936;2022-12-26T07:02:48;102290.97;;;8.43;100.00
9764;BME280;4921;43.214;27.936;2022-12-26T07:05:17;102278.56;;;8.67;100.00
9764;BME280;4921;43.214;27.936;2022-12-26T07:07:49;102298.19;;;8.77;100.00
9764;BME280;4921;43.214;27.936;2022-12-26T07:10:16;102308.03;;;8.72;100.00
9764;BME280;4921;43.214;27.936;2022-12-26T07:12:45;102307.13;;;8.73;97.53
9764;BME280;4921;43.214;27.936;2022-12-26T07:15:12;102308.50;;;8.61;94.02
9764;BME280;4921;43.214;27.936;2022-12-26T07:17:39;102311.41;;;8.55;91.83
9764;BME280;4921;43.214;27.936;2022-12-26T07:20:07;102300.66;;;8.41;92.68
9764;BME280;4921;43.214;27.936;2022-12-26T07:22:34;102311.41;;;8.55;92.48
9764;BME280;4921;43.214;27.936;2022-12-26T07:25:01;102315.66;;;8.58;92.95
9764;BME280;4921;43.214;27.936;2022-12-26T07:27:28;102298.69;;;8.66;92.07
9764;BME280;4921;43.214;27.936;2022-12-26T07:29:57;102300.88;;;8.75;90.62
9764;BME280;4921;43.214;27.936;2022-12-26T07:32:23;102300.69;;;8.80;90.34
9764;BME280;4921;43.214;27.936;2022-12-26T07:34:50;102318.59;;;8.89;89.52
9764;BME280;4921;43.214;27.936;2022-12-26T07:37:17;102313.88;;;8.97;88.29
9764;BME280;4921;43.214;27.936;2022-12-26T07:39:44;102314.22;;;9.08;86.35
9764;BME280;4921;43.214;27.936;2022-12-26T07:42:11;102311.94;;;9.19;84.33
9764;BME280;4921;43.214;27.936;2022-12-26T07:44:38;102315.88;;;9.29;84.04
9764;BME280;4921;43.214;27.936;2022-12-26T07:47:07;102309.34;;;9.38;83.12
9764;BME280;4921;43.214;27.936;2022-12-26T07:49:34;102318.56;;;9.46;83.30
9764;BME280;4921;43.214;27.936;2022-12-26T07:52:01;102310.38;;;9.52;82.64
9764;BME280;4921;43.214;27.936;2022-12-26T07:54:28;102310.16;;;9.57;81.93
9764;BME280;4921;43.214;27.936;2022-12-26T07:56:56;102319.59;;;9.78;81.22
9764;BME280;4921;43.214;27.936;2022-12-26T07:59:23;102311.19;;;9.88;81.47
9764;BME280;4921;43.214;27.936;2022-12-26T08:01:50;102308.81;;;10.01;81.37
9764;BME280;4921;43.214;27.936;2022-12-26T08:04:22;102303.88;;;10.12;79.92
9764;BME280;4921;43.214;27.936;2022-12-26T08:06:48;102312.53;;;10.31;79.58
9764;BME280;4921;43.214;27.936;2022-12-26T08:09:18;102315.31;;;10.45;78.49
9764;BME280;4921;43.214;27.936;2022-12-26T08:11:45;102319.72;;;10.45;79.09
9764;BME280;4921;43.214;27.936;2022-12-26T08:14:13;102317.31;;;10.57;79.18
9764;BME280;4921;43.214;27.936;2022-12-26T08:16:41;102307.59;;;10.75;78.97
9764;BME280;4921;43.214;27.936;2022-12-26T08:19:08;102312.47;;;10.98;78.95
9764;BME280;4921;43.214;27.936;2022-12-26T08:21:37;102315.03;;;11.15;78.62
9764;BME280;4921;43.214;27.936;2022-12-26T08:24:04;102312.16;;;11.20;78.12
9764;BME280;4921;43.214;27.936;2022-12-26T08:26:31;102324.66;;;11.32;77.27
9764;BME280;4921;43.214;27.936;2022-12-26T08:28:59;102314.53;;;11.40;76.87
9764;BME280;4921;43.214;27.936;2022-12-26T08:31:25;102311.91;;;11.56;76.79
9764;BME280;4921;43.214;27.936;2022-12-26T08:33:53;102306.63;;;11.71;77.09
9764;BME280;4921;43.214;27.936;2022-12-26T08:36:21;102303.47;;;11.80;76.38
9764;BME280;4921;43.214;27.936;2022-12-26T08:38:49;102290.50;;;11.91;74.93
9764;BME280;4921;43.214;27.936;2022-12-26T08:41:16;102294.97;;;12.05;73.88
9764;BME280;4921;43.214;27.936;2022-12-26T08:43:47;102295.28;;;12.14;73.48
9764;BME280;4921;43.214;27.936;2022-12-26T08:46:14;102285.78;;;12.26;72.48
9764;BME280;4921;43.214;27.936;2022-12-26T08:48:41;102281.28;;;12.42;71.79
9764;BME280;4921;43.214;27.936;2022-12-26T08:51:11;102267.06;;;12.59;71.19
9764;BME280;4921;43.214;27.936;2022-12-26T08:53:39;102272.03;;;12.77;70.38
9764;BME280;4921;43.214;27.936;2022-12-26T08:56:12;102268.34;;;12.94;75.71
9764;BME280;4921;43.214;27.936;2022-12-26T08:58:39;102268.81;;;13.15;70.39
9764;BME280;4921;43.214;27.936;2022-12-26T09:01:07;102275.31;;;13.23;66.70
9764;BME280;4921;43.214;27.936;2022-12-26T09:03:34;102280.94;;;13.31;65.12
9764;BME280;4921;43.214;27.936;2022-12-26T09:06:02;102276.22;;;13.36;63.76
9764;BME280;4921;43.214;27.936;2022-12-26T09:08:29;102266.72;;;13.46;62.16
9764;BME280;4921;43.214;27.936;2022-12-26T09:11:01;102249.84;;;13.49;60.84
9764;BME280;4921;43.214;27.936;2022-12-26T09:13:30;102252.97;;;13.68;59.94
9764;BME280;4921;43.214;27.936;2022-12-26T09:16:04;102246.66;;;13.83;59.45
9764;BME280;4921;43.214;27.936;2022-12-26T09:18:31;102238.09;;;13.92;58.04
9764;BME280;4921;43.214;27.936;2022-12-26T09:20:59;102231.22;;;14.02;57.27
9764;BME280;4921;43.214;27.936;2022-12-26T09:23:26;102222.47;;;14.14;56.25
9764;BME280;4921;43.214;27.936;2022-12-26T09:25:53;102218.56;;;14.32;55.71
9764;BME280;4921;43.214;27.936;2022-12-26T09:28:20;102221.00;;;14.48;54.55
9764;BME280;4921;43.214;27.936;2022-12-26T09:30:49;102213.75;;;14.63;53.46
9764;BME280;4921;43.214;27.936;2022-12-26T09:33:16;102212.06;;;14.74;53.02
9764;BME280;4921;43.214;27.936;2022-12-26T09:35:46;102204.78;;;14.89;52.49
9764;BME280;4921;43.214;27.936;2022-12-26T09:38:13;102209.84;;;15.04;52.18
9764;BME280;4921;43.214;27.936;2022-12-26T09:40:48;102203.06;;;15.24;51.69
9764;BME280;4921;43.214;27.936;2022-12-26T09:43:22;102196.00;;;15.36;50.97
9764;BME280;4921;43.214;27.936;2022-12-26T09:45:59;102183.47;;;15.38;50.51
9764;BME280;4921;43.214;27.936;2022-12-26T09:48:34;102201.94;;;15.63;50.82
9764;BME280;4921;43.214;27.936;2022-12-26T09:51:07;102202.72;;;15.76;50.06
9764;BME280;4921;43.214;27.936;2022-12-26T09:53:39;102198.38;;;15.86;49.24
9764;BME280;4921;43.214;27.936;2022-12-26T09:56:12;102210.25;;;16.04;48.38
9764;BME280;4921;43.214;27.936;2022-12-26T09:58:42;102203.75;;;16.19;47.32
9764;BME280;4921;43.214;27.936;2022-12-26T10:01:13;102201.13;;;16.30;47.01
9764;BME280;4921;43.214;27.936;2022-12-26T10:03:44;102211.00;;;16.39;46.45
9764;BME280;4921;43.214;27.936;2022-12-26T10:06:14;102193.63;;;16.46;46.13
9764;BME280;4921;43.214;27.936;2022-12-26T10:11:42;102199.91;;;16.67;44.48
9764;BME280;4921;43.214;27.936;2022-12-26T10:14:19;102205.13;;;16.69;44.71
9764;BME280;4921;43.214;27.936;2022-12-26T10:16:53;102194.22;;;16.72;44.25
9764;BME280;4921;43.214;27.936;2022-12-26T10:19:56;102187.59;;;16.77;43.83
9764;BME280;4921;43.214;27.936;2022-12-26T10:22:55;102190.84;;;16.81;43.57
9764;BME280;4921;43.214;27.936;2022-12-26T10:25:35;102193.72;;;16.89;43.44
9764;BME280;4921;43.214;27.936;2022-12-26T10:28:04;102189.13;;;16.91;43.23
9764;BME280;4921;43.214;27.936;2022-12-26T10:30:38;102181.03;;;16.93;42.73
9764;BME280;4921;43.214;27.936;2022-12-26T10:33:13;102174.38;;;16.87;43.04
9764;BME280;4921;43.214;27.936;2022-12-26T10:35:43;102169.13;;;16.21;44.35
9764;BME280;4921;43.214;27.936;2022-12-26T10:38:20;102169.56;;;15.92;45.93
9764;BME280;4921;43.214;27.936;2022-12-26T10:40:51;102169.72;;;15.56;47.05
9764;BME280;4921;43.214;27.936;2022-12-26T10:43:25;102171.81;;;15.75;47.14
9764;BME280;4921;43.214;27.936;2022-12-26T10:46:08;102170.69;;;15.32;48.38
9764;BME280;4921;43.214;27.936;2022-12-26T10:48:43;102163.72;;;15.07;48.97
9764;BME280;4921;43.214;27.936;2022-12-26T10:51:11;102171.34;;;15.11;49.26
9764;BME280;4921;43.214;27.936;2022-12-26T10:53:41;102163.38;;;15.11;49.90
9764;BME280;4921;43.214;27.936;2022-12-26T10:56:09;102170.97;;;14.92;50.87
9764;BME280;4921;43.214;27.936;2022-12-26T10:58:37;102172.13;;;14.65;50.75
9764;BME280;4921;43.214;27.936;2022-12-26T11:01:34;102167.00;;;14.38;52.82
9764;BME280;4921;43.214;27.936;2022-12-26T11:04:05;102175.34;;;14.32;53.79
9764;BME280;4921;43.214;27.936;2022-12-26T11:06:36;102172.28;;;14.25;53.75
9764;BME280;4921;43.214;27.936;2022-12-26T11:09:05;102153.44;;;14.05;54.82
9764;BME280;4921;43.214;27.936;2022-12-26T11:11:35;102157.38;;;13.99;53.63
9764;BME280;4921;43.214;27.936;2022-12-26T11:14:30;102148.59;;;13.99;52.81
9764;BME280;4921;43.214;27.936;2022-12-26T11:17:01;102144.66;;;14.17;53.21
9764;BME280;4921;43.214;27.936;2022-12-26T11:19:32;102142.56;;;13.84;55.61
9764;BME280;4921;43.214;27.936;2022-12-26T11:22:22;102136.75;;;13.66;58.13
9764;BME280;4921;43.214;27.936;2022-12-26T11:25:13;102136.00;;;13.52;60.20
9764;BME280;4921;43.214;27.936;2022-12-26T11:27:43;102128.56;;;13.44;61.69
9764;BME280;4921;43.214;27.936;2022-12-26T11:30:28;102134.72;;;13.57;62.11
9764;BME280;4921;43.214;27.936;2022-12-26T11:33:10;102129.53;;;13.43;62.60
9764;BME280;4921;43.214;27.936;2022-12-26T11:35:48;102129.41;;;13.32;62.64
9764;BME280;4921;43.214;27.936;2022-12-26T11:38:17;102127.63;;;13.45;62.44
9764;BME280;4921;43.214;27.936;2022-12-26T11:40:58;102135.16;;;13.64;62.97
9764;BME280;4921;43.214;27.936;2022-12-26T11:43:39;102124.84;;;13.22;64.61
9764;BME280;4921;43.214;27.936;2022-12-26T11:46:06;102113.69;;;12.90;66.56
9764;BME280;4921;43.214;27.936;2022-12-26T11:48:34;102115.00;;;12.97;66.73
9764;BME280;4921;43.214;27.936;2022-12-26T11:51:03;102116.72;;;12.57;66.56
9764;BME280;4921;43.214;27.936;2022-12-26T11:53:30;102124.63;;;12.57;65.41
9764;BME280;4921;43.214;27.936;2022-12-26T11:56:01;102126.44;;;12.57;64.49
9764;BME280;4921;43.214;27.936;2022-12-26T11:58:30;102120.06;;;12.18;63.38
9764;BME280;4921;43.214;27.936;2022-12-26T12:01:06;102115.25;;;12.39;61.76
9764;BME280;4921;43.214;27.936;2022-12-26T12:03:35;102113.59;;;12.24;62.35
9764;BME280;4921;43.214;27.936;2022-12-26T12:06:15;102115.53;;;12.35;62.88
9764;BME280;4921;43.214;27.936;2022-12-26T12:08:52;102110.28;;;12.35;63.26
9764;BME280;4921;43.214;27.936;2022-12-26T12:11:29;102121.13;;;12.16;62.43
9764;BME280;4921;43.214;27.936;2022-12-26T12:14:17;102116.59;;;12.04;63.31
9764;BME280;4921;43.214;27.936;2022-12-26T12:16:57;102114.16;;;12.01;63.94
9764;BME280;4921;43.214;27.936;2022-12-26T12:19:37;102115.41;;;12.09;62.65
9764;BME280;4921;43.214;27.936;2022-12-26T12:22:31;102113.41;;;12.13;62.92
9764;BME280;4921;43.214;27.936;2022-12-26T12:25:20;102115.75;;;12.03;63.95
9764;BME280;4921;43.214;27.936;2022-12-26T12:27:55;102116.63;;;11.90;65.79
9764;BME280;4921;43.214;27.936;2022-12-26T12:30:29;102122.44;;;11.81;68.94
9764;BME280;4921;43.214;27.936;2022-12-26T12:33:20;102112.88;;;11.64;71.21
9764;BME280;4921;43.214;27.936;2022-12-26T12:35:58;102113.31;;;11.72;71.70
9764;BME280;4921;43.214;27.936;2022-12-26T12:38:32;102113.03;;;11.77;71.32
9764;BME280;4921;43.214;27.936;2022-12-26T12:41:26;102120.34;;;11.72;71.14
9764;BME280;4921;43.214;27.936;2022-12-26T12:44:02;102113.31;;;11.72;72.01
9764;BME280;4921;43.214;27.936;2022-12-26T12:46:36;102128.00;;;11.61;73.44
9764;BME280;4921;43.214;27.936;2022-12-26T12:49:22;102119.69;;;11.68;73.10
9764;BME280;4921;43.214;27.936;2022-12-26T12:51:59;102131.00;;;11.84;73.63
9764;BME280;4921;43.214;27.936;2022-12-26T12:57:42;102122.34;;;11.96;73.95
9764;BME280;4921;43.214;27.936;2022-12-26T13:00:14;102119.13;;;12.19;73.14
9764;BME280;4921;43.214;27.936;2022-12-26T13:02:45;102120.28;;;12.15;72.70
9764;BME280;4921;43.214;27.936;2022-12-26T13:05:20;102118.69;;;12.13;73.52
9764;BME280;4921;43.214;27.936;2022-12-26T13:07:53;102114.03;;;12.31;72.85
9764;BME280;4921;43.214;27.936;2022-12-26T13:10:26;102115.84;;;12.16;73.24
9764;BME280;4921;43.214;27.936;2022-12-26T13:12:56;102110.00;;;12.11;74.83
9764;BME280;4921;43.214;27.936;2022-12-26T13:15:31;102110.66;;;12.29;74.34
9764;BME280;4921;43.214;27.936;2022-12-26T13:18:02;102115.66;;;12.33;74.12
9764;BME280;4921;43.214;27.936;2022-12-26T13:20:37;102112.34;;;12.30;75.21
9764;BME280;4921;43.214;27.936;2022-12-26T13:23:10;102116.97;;;12.26;76.24
9764;BME280;4921;43.214;27.936;2022-12-26T13:26:08;102120.19;;;12.17;78.29
9764;BME280;4921;43.214;27.936;2022-12-26T13:28:44;102108.97;;;12.13;80.13
9764;BME280;4921;43.214;27.936;2022-12-26T13:31:14;102105.56;;;12.25;79.24
9764;BME280;4921;43.214;27.936;2022-12-26T13:33:41;102113.28;;;12.14;82.39
9764;BME280;4921;43.214;27.936;2022-12-26T13:36:09;102110.75;;;12.13;83.29
9764;BME280;4921;43.214;27.936;2022-12-26T13:39:33;102107.91;;;12.30;82.39
9764;BME280;4921;43.214;27.936;2022-12-26T13:42:16;102109.06;;;12.26;84.12
9764;BME280;4921;43.214;27.936;2022-12-26T13:51:44;102126.13;;;12.06;88.76
9764;BME280;4921;43.214;27.936;2022-12-26T13:54:13;102113.09;;;12.03;90.33